Time;durP1;ratioP1;P1;durP2;ratioP2;P2;SDS_P1;SDS_P2;PMS_P1;PMS_P2;Temp;Humidity;BMP_temperature;BMP_pressure;BME280_temperature;BME280_humidity;BME280_pressure;Samples;Min_cycle;Max_cycle;Signal;HPM_P1;HPM_P2
2023/09/03 00:00:23;;;;;;;;;;;;;;;20.18;64.23;101417.81;4978056;28;7241;-74
2023/09/03 00:02:49;;;;;;;;;;;;;;;20.14;64.34;101408.19;4963707;28;6787;-74
2023/09/03 00:05:14;;;;;;;;;;;;;;;20.06;64.61;101405.41;4974416;28;6791;-74
2023/09/03 00:07:40;;;;;;;;;;;;;;;20.01;64.11;101405.28;4967312;28;7178;-74
2023/09/03 00:10:06;;;;;;;;;;;;;;;19.95;64.34;101410.34;4978023;28;7273;-74
2023/09/03 00:12:31;;;;;;;;;;;;;;;19.89;64.20;101413.63;4968958;28;7355;-74
2023/09/03 00:14:57;;;;;;;;;;;;;;;19.84;64.37;101404.81;4979101;28;6780;-74
2023/09/03 00:17:22;;;;;;;;;;;;;;;19.80;64.28;101408.19;4981482;28;6921;-73
2023/09/03 00:19:48;;;;;;;;;;;;;;;19.76;64.68;101407.22;4962027;28;7134;-74
2023/09/03 00:22:13;;;;;;;;;;;;;;;19.74;64.95;101406.31;4980644;28;6836;-74
2023/09/03 00:24:39;;;;;;;;;;;;;;;19.75;65.09;101399.38;4963627;28;7247;-74
2023/09/03 00:27:04;;;;;;;;;;;;;;;19.76;65.33;101399.44;4965096;28;6832;-74
2023/09/03 00:29:30;;;;;;;;;;;;;;;19.77;65.33;101393.38;4981204;28;6764;-74
2023/09/03 00:31:55;;;;;;;;;;;;;;;19.76;65.06;101398.56;4965566;28;6914;-74
2023/09/03 00:34:21;;;;;;;;;;;;;;;19.71;64.92;101404.50;4964311;28;7374;-73
2023/09/03 00:36:46;;;;;;;;;;;;;;;19.68;64.85;101403.53;4975153;28;6950;-74
2023/09/03 00:39:12;;;;;;;;;;;;;;;19.62;64.15;101403.41;4967096;28;7132;-74
2023/09/03 00:41:38;;;;;;;;;;;;;;;19.54;64.23;101398.88;4966714;28;6973;-74
2023/09/03 00:44:04;;;;;;;;;;;;;;;19.48;64.68;101396.09;4974111;28;7638;-74
2023/09/03 00:46:29;;;;;;;;;;;;;;;19.42;64.41;101399.41;4968044;28;7078;-74
2023/09/03 00:48:56;;;;;;;;;;;;;;;19.36;63.81;101400.97;4976333;28;7065;-73
2023/09/03 00:51:22;;;;;;;;;;;;;;;19.32;64.24;101409.53;4979121;28;6800;-74
2023/09/03 00:53:52;;;;;;;;;;;;;;;19.27;64.44;101417.19;4964884;28;7075;-74
2023/09/03 00:56:18;;;;;;;;;;;;;;;19.23;63.95;101416.22;4981652;28;7164;-73
2023/09/03 00:58:45;;;;;;;;;;;;;;;19.20;63.96;101420.44;4958515;28;7062;-74
2023/09/03 01:01:11;;;;;;;;;;;;;;;19.15;64.58;101418.56;4980125;28;7020;-74
2023/09/03 01:03:36;;;;;;;;;;;;;;;19.12;64.39;101423.69;4979040;28;7188;-74
2023/09/03 01:06:02;;;;;;;;;;;;;;;19.08;64.06;101424.47;4960619;28;6783;-74
2023/09/03 01:08:29;;;;;;;;;;;;;;;19.02;64.48;101421.66;4968008;28;7115;-74
2023/09/03 01:11:00;;;;;;;;;;;;;;;18.99;64.38;101437.13;4994799;28;6819;-74
2023/09/03 01:13:40;;;;;;;;;;;;;;;18.92;64.24;101441.25;4963652;28;6966;-74
2023/09/03 01:16:13;;;;;;;;;;;;;;;18.86;64.64;101441.09;4965799;28;7388;-74
2023/09/03 01:18:41;;;;;;;;;;;;;;;18.83;64.80;101438.38;4962543;28;7200;-74
2023/09/03 01:21:21;;;;;;;;;;;;;;;18.79;64.21;101450.41;4995522;28;6808;-74
2023/09/03 01:24:24;;;;;;;;;;;;;;;18.76;64.65;101460.69;4975679;28;7292;-73
2023/09/03 01:27:12;;;;;;;;;;;;;;;18.78;65.75;101463.34;4966637;28;7231;-73
2023/09/03 01:29:41;;;;;;;;;;;;;;;18.84;65.88;101466.13;4966881;28;6811;-73
2023/09/03 01:32:08;;;;;;;;;;;;;;;18.92;66.92;101467.22;4982596;28;7113;-74
2023/09/03 01:34:36;;;;;;;;;;;;;;;19.03;66.67;101474.53;4984248;28;6792;-74
2023/09/03 01:37:01;;;;;;;;;;;;;;;19.08;66.69;101473.81;4959888;28;6792;-74
2023/09/03 01:39:27;;;;;;;;;;;;;;;19.12;65.86;101477.38;4980738;28;6874;-74
2023/09/03 01:41:53;;;;;;;;;;;;;;;19.12;65.72;101469.56;4966709;28;6776;-75
2023/09/03 01:44:18;;;;;;;;;;;;;;;19.10;65.13;101468.66;4970938;28;6985;-75
2023/09/03 01:46:50;;;;;;;;;;;;;;;19.06;64.91;101459.00;4967564;28;6940;-75
2023/09/03 01:49:27;;;;;;;;;;;;;;;19.00;64.95;101462.28;4968166;28;7079;-75
2023/09/03 01:52:20;;;;;;;;;;;;;;;18.93;64.72;101463.81;4963828;28;7306;-75
2023/09/03 01:54:48;;;;;;;;;;;;;;;18.85;64.47;101460.09;4980057;28;7029;-75
2023/09/03 01:57:25;;;;;;;;;;;;;;;18.79;64.37;101465.09;4999165;28;6875;-75
2023/09/03 01:59:57;;;;;;;;;;;;;;;18.73;64.12;101465.78;4997168;28;6796;-75
2023/09/03 02:02:24;;;;;;;;;;;;;;;18.66;64.47;101462.13;4979390;28;6849;-74
2023/09/03 02:04:50;;;;;;;;;;;;;;;18.62;64.69;101473.22;4967220;28;7334;-74
2023/09/03 02:07:16;;;;;;;;;;;;;;;18.55;65.01;101466.97;4968563;28;7141;-75
2023/09/03 02:09:41;;;;;;;;;;;;;;;18.50;64.81;101463.34;4964620;28;7031;-75
2023/09/03 02:12:08;;;;;;;;;;;;;;;18.48;65.58;101461.53;4967151;28;6894;-75
2023/09/03 02:14:33;;;;;;;;;;;;;;;18.47;65.71;101463.22;4957623;28;7246;-75
2023/09/03 02:16:59;;;;;;;;;;;;;;;18.49;65.42;101468.47;4968341;28;6947;-75
2023/09/03 02:19:24;;;;;;;;;;;;;;;18.48;65.75;101464.13;4980858;28;6820;-75
2023/09/03 02:21:51;;;;;;;;;;;;;;;18.46;66.06;101459.78;4967647;28;6991;-75
2023/09/03 02:24:17;;;;;;;;;;;;;;;18.45;65.90;101458.00;4966341;28;6993;-75
2023/09/03 02:26:44;;;;;;;;;;;;;;;18.44;65.69;101464.00;4968623;28;7095;-74
2023/09/03 02:29:10;;;;;;;;;;;;;;;18.42;65.77;101455.28;4969535;28;6892;-75
2023/09/03 02:31:37;;;;;;;;;;;;;;;18.39;65.05;101455.19;4981146;28;6946;-75
2023/09/03 02:34:04;;;;;;;;;;;;;;;18.37;65.24;101451.69;4963816;28;6975;-75
2023/09/03 02:36:31;;;;;;;;;;;;;;;18.34;65.32;101456.75;4956540;28;6987;-75
2023/09/03 02:39:06;;;;;;;;;;;;;;;18.29;65.06;101460.94;4951937;28;7035;-74
2023/09/03 02:41:32;;;;;;;;;;;;;;;18.25;65.29;101472.00;4964162;28;7015;-75
2023/09/03 02:44:00;;;;;;;;;;;;;;;18.21;64.71;101475.34;4995472;28;6796;-74
2023/09/03 02:46:26;;;;;;;;;;;;;;;18.19;64.94;101483.06;4964101;28;6816;-75
2023/09/03 02:48:52;;;;;;;;;;;;;;;18.13;64.89;101473.38;4995656;28;8078;-75
2023/09/03 02:51:18;;;;;;;;;;;;;;;18.09;64.94;101475.81;4975847;28;8144;-74
2023/09/03 02:53:45;;;;;;;;;;;;;;;18.05;65.25;101482.59;4963301;28;6784;-74
2023/09/03 02:56:12;;;;;;;;;;;;;;;18.02;64.60;101485.97;4961455;28;6999;-73
2023/09/03 02:58:38;;;;;;;;;;;;;;;17.99;65.00;101491.03;4964554;28;6804;-74
2023/09/03 03:01:06;;;;;;;;;;;;;;;17.98;64.99;101488.41;4962882;28;7517;-74
2023/09/03 03:03:31;;;;;;;;;;;;;;;17.94;64.97;101490.00;4965679;28;7243;-75
2023/09/03 03:05:57;;;;;;;;;;;;;;;17.91;65.38;101490.75;4975858;28;6905;-75
2023/09/03 03:08:22;;;;;;;;;;;;;;;17.89;65.28;101489.84;4963704;28;6783;-74
2023/09/03 03:10:48;;;;;;;;;;;;;;;17.88;65.41;101493.25;4977963;28;6776;-74
2023/09/03 03:13:13;;;;;;;;;;;;;;;17.88;64.72;101502.72;4974516;28;6797;-74
2023/09/03 03:15:38;;;;;;;;;;;;;;;17.86;65.47;101492.28;4952968;28;7901;-74
2023/09/03 03:18:04;;;;;;;;;;;;;;;17.87;64.68;101500.97;4977699;28;6772;-74
2023/09/03 03:20:30;;;;;;;;;;;;;;;17.87;64.88;101504.47;4977324;28;6987;-74
2023/09/03 03:22:56;;;;;;;;;;;;;;;17.88;65.56;101503.63;4968854;28;6776;-75
2023/09/03 03:25:22;;;;;;;;;;;;;;;17.89;64.90;101501.91;4961546;28;6800;-74
2023/09/03 03:27:47;;;;;;;;;;;;;;;17.89;65.26;101504.50;4961389;28;6958;-75
2023/09/03 03:30:13;;;;;;;;;;;;;;;17.91;66.14;101513.22;4962539;28;7292;-75
2023/09/03 03:32:38;;;;;;;;;;;;;;;17.92;66.22;101507.22;4975092;28;6867;-74
2023/09/03 03:35:04;;;;;;;;;;;;;;;17.95;66.17;101502.13;4975966;28;6953;-74
2023/09/03 03:37:30;;;;;;;;;;;;;;;17.99;66.75;101513.50;4950247;28;6973;-75
2023/09/03 03:39:55;;;;;;;;;;;;;;;18.04;66.30;101518.06;4958378;28;7111;-75
2023/09/03 03:42:20;;;;;;;;;;;;;;;18.10;66.79;101509.59;4959949;28;6980;-75
2023/09/03 03:44:46;;;;;;;;;;;;;;;18.15;66.30;101508.03;4978782;28;6852;-74
2023/09/03 03:47:12;;;;;;;;;;;;;;;18.18;67.07;101497.78;4978670;28;7000;-74
2023/09/03 03:49:37;;;;;;;;;;;;;;;18.24;66.53;101491.00;4973286;28;6922;-74
2023/09/03 03:52:03;;;;;;;;;;;;;;;18.25;66.22;101483.28;4962869;28;7266;-75
2023/09/03 03:54:30;;;;;;;;;;;;;;;18.28;66.58;101478.19;4959691;28;6783;-74
2023/09/03 03:56:56;;;;;;;;;;;;;;;18.29;66.66;101479.09;4962216;28;6816;-75
2023/09/03 03:59:21;;;;;;;;;;;;;;;18.30;66.80;101481.75;4963678;28;6973;-74
2023/09/03 04:01:47;;;;;;;;;;;;;;;18.32;66.78;101486.97;4965444;28;6776;-75
2023/09/03 04:04:12;;;;;;;;;;;;;;;18.32;66.44;101479.19;4962766;28;7213;-75
2023/09/03 04:06:38;;;;;;;;;;;;;;;18.32;66.41;101480.06;4963752;28;6780;-75
2023/09/03 04:09:03;;;;;;;;;;;;;;;18.30;66.55;101467.88;4958914;28;6892;-75
2023/09/03 04:11:29;;;;;;;;;;;;;;;18.29;66.84;101472.16;4967234;28;7016;-74
2023/09/03 04:13:54;;;;;;;;;;;;;;;18.26;66.79;101463.44;4964109;28;7000;-75
2023/09/03 04:16:22;;;;;;;;;;;;;;;18.24;66.40;101472.84;4964179;28;6970;-75
2023/09/03 04:18:49;;;;;;;;;;;;;;;18.22;66.70;101472.81;4961463;28;7292;-75
2023/09/03 04:21:14;;;;;;;;;;;;;;;18.21;67.11;101463.28;4978123;28;7142;-75
2023/09/03 04:23:40;;;;;;;;;;;;;;;18.22;67.19;101456.34;4976630;28;6779;-75
2023/09/03 04:26:08;;;;;;;;;;;;;;;18.21;66.91;101462.38;4979944;28;6800;-75
2023/09/03 04:28:34;;;;;;;;;;;;;;;18.21;67.38;101452.00;4979291;28;7167;-75
2023/09/03 04:31:04;;;;;;;;;;;;;;;18.22;66.84;101453.75;4965089;28;6798;-75
2023/09/03 04:33:29;;;;;;;;;;;;;;;18.23;67.12;101463.31;4991112;28;6845;-75
2023/09/03 04:36:00;;;;;;;;;;;;;;;18.25;67.38;101479.81;4993942;28;7573;-75
2023/09/03 04:38:27;;;;;;;;;;;;;;;18.26;66.71;101494.56;4978185;28;6871;-75
2023/09/03 04:40:53;;;;;;;;;;;;;;;18.30;66.99;101504.19;4961397;28;6812;-75
2023/09/03 04:43:19;;;;;;;;;;;;;;;18.31;66.80;101508.56;4988220;28;7129;-74
2023/09/03 04:45:46;;;;;;;;;;;;;;;18.34;66.69;101516.44;4965481;28;7228;-74
2023/09/03 04:48:12;;;;;;;;;;;;;;;18.36;67.05;101521.69;4961890;28;6792;-75
2023/09/03 04:50:38;;;;;;;;;;;;;;;18.38;66.41;101520.91;4961882;28;6935;-75
2023/09/03 04:53:03;;;;;;;;;;;;;;;18.40;67.01;101527.03;4975960;28;6788;-75
2023/09/03 04:55:33;;;;;;;;;;;;;;;18.43;67.13;101518.47;4977108;28;6962;-75
2023/09/03 04:57:58;;;;;;;;;;;;;;;18.44;66.88;101526.28;4992429;28;6872;-75
2023/09/03 05:00:24;;;;;;;;;;;;;;;18.48;66.73;101534.22;4968144;28;6863;-75
2023/09/03 05:02:49;;;;;;;;;;;;;;;18.50;66.67;101540.31;4958783;28;6825;-75
2023/09/03 05:05:15;;;;;;;;;;;;;;;18.54;66.22;101550.88;4980822;28;6846;-74
2023/09/03 05:07:40;;;;;;;;;;;;;;;18.54;66.92;101548.28;4975512;28;7901;-75
2023/09/03 05:10:07;;;;;;;;;;;;;;;18.56;66.90;101548.34;4980808;28;7118;-75
2023/09/03 05:12:33;;;;;;;;;;;;;;;18.56;66.85;101543.13;4982425;28;7026;-75
2023/09/03 05:14:59;;;;;;;;;;;;;;;18.58;66.54;101549.25;4959729;28;6994;-75
2023/09/03 05:17:24;;;;;;;;;;;;;;;18.60;66.46;101542.41;4997235;28;6966;-74
2023/09/03 05:19:50;;;;;;;;;;;;;;;18.63;67.00;101552.88;4980316;28;7197;-75
2023/09/03 05:22:15;;;;;;;;;;;;;;;18.65;67.22;101556.44;4958732;28;6996;-74
2023/09/03 05:24:41;;;;;;;;;;;;;;;18.69;66.95;101568.66;4963183;28;7037;-75
2023/09/03 05:27:07;;;;;;;;;;;;;;;18.71;67.00;101569.59;4962823;28;6930;-75
2023/09/03 05:29:32;;;;;;;;;;;;;;;18.76;66.86;101568.88;4962534;28;8435;-74
2023/09/03 05:31:58;;;;;;;;;;;;;;;18.83;67.47;101581.22;4993414;28;6956;-74
2023/09/03 05:34:24;;;;;;;;;;;;;;;18.91;67.14;101581.47;4995142;28;6864;-74
2023/09/03 05:36:50;;;;;;;;;;;;;;;18.97;67.12;101579.97;4994480;28;6796;-75
2023/09/03 05:39:15;;;;;;;;;;;;;;;19.04;67.48;101586.25;4981959;28;6792;-74
2023/09/03 05:41:41;;;;;;;;;;;;;;;19.10;67.32;101582.97;4969225;28;6791;-74
2023/09/03 05:44:09;;;;;;;;;;;;;;;19.17;67.24;101582.34;4993091;28;7013;-75
2023/09/03 05:46:38;;;;;;;;;;;;;;;19.25;67.48;101586.06;4976580;28;7031;-75
2023/09/03 05:49:03;;;;;;;;;;;;;;;19.34;67.59;101582.84;4992784;28;7088;-74
2023/09/03 05:51:29;;;;;;;;;;;;;;;19.42;67.33;101583.09;4967360;28;6784;-75
2023/09/03 05:53:54;;;;;;;;;;;;;;;19.51;68.00;101580.78;4979049;28;6856;-74
2023/09/03 05:56:20;;;;;;;;;;;;;;;19.62;67.87;101590.63;4960015;28;6942;-75
2023/09/03 05:58:46;;;;;;;;;;;;;;;19.71;67.62;101596.09;4980024;28;6811;-75
2023/09/03 06:01:12;;;;;;;;;;;;;;;19.80;67.87;101590.25;4966540;28;6783;-77
2023/09/03 06:03:39;;;;;;;;;;;;;;;19.89;67.45;101585.31;4994331;28;6982;-75
2023/09/03 06:06:09;;;;;;;;;;;;;;;19.98;67.27;101595.13;4997910;28;6820;-75
2023/09/03 06:08:36;;;;;;;;;;;;;;;20.06;67.26;101601.44;4996109;28;7004;-75
2023/09/03 06:11:03;;;;;;;;;;;;;;;20.17;67.63;101606.06;4966474;28;6812;-75
2023/09/03 06:13:30;;;;;;;;;;;;;;;20.27;67.44;101610.66;4966530;28;6860;-75
2023/09/03 06:15:56;;;;;;;;;;;;;;;20.37;67.73;101612.69;4952767;28;7040;-75
2023/09/03 06:18:23;;;;;;;;;;;;;;;20.45;67.27;101612.00;4996504;28;6999;-74
2023/09/03 06:20:49;;;;;;;;;;;;;;;20.51;67.52;101620.00;4989713;28;7338;-75
2023/09/03 06:23:18;;;;;;;;;;;;;;;20.61;67.53;101608.97;4950015;28;7059;-75
2023/09/03 06:25:48;;;;;;;;;;;;;;;20.72;67.51;101601.44;4966894;28;6880;-75
2023/09/03 06:28:14;;;;;;;;;;;;;;;20.84;67.88;101605.22;4964491;28;6946;-75
2023/09/03 06:30:40;;;;;;;;;;;;;;;20.96;67.66;101610.72;4948673;28;8403;-75
2023/09/03 06:33:06;;;;;;;;;;;;;;;21.06;67.40;101606.63;4990713;28;6800;-75
2023/09/03 06:35:32;;;;;;;;;;;;;;;21.13;67.15;101624.16;4964971;28;6787;-75
2023/09/03 06:37:58;;;;;;;;;;;;;;;21.16;66.97;101628.56;4964529;28;7242;-75
2023/09/03 06:40:24;;;;;;;;;;;;;;;21.23;67.30;101640.91;4957495;28;6950;-75
2023/09/03 06:42:49;;;;;;;;;;;;;;;21.31;66.99;101648.91;4963451;28;6954;-75
2023/09/03 06:45:15;;;;;;;;;;;;;;;21.39;66.70;101652.56;4981345;28;7043;-75
2023/09/03 06:47:41;;;;;;;;;;;;;;;21.43;66.65;101649.16;4980662;28;7403;-74
2023/09/03 06:50:07;;;;;;;;;;;;;;;21.47;66.31;101648.41;4990397;28;6995;-75
2023/09/03 06:52:34;;;;;;;;;;;;;;;21.56;66.83;101652.09;4960670;28;6990;-75
2023/09/03 06:55:00;;;;;;;;;;;;;;;21.61;66.58;101647.81;4977309;28;6820;-75
2023/09/03 06:57:26;;;;;;;;;;;;;;;21.67;66.07;101642.78;4979052;28;6987;-75
2023/09/03 06:59:51;;;;;;;;;;;;;;;21.71;66.19;101649.81;4959549;28;6860;-75
2023/09/03 07:02:17;;;;;;;;;;;;;;;21.76;66.00;101647.31;4993322;28;6808;-75
2023/09/03 07:04:42;;;;;;;;;;;;;;;21.83;65.87;101650.97;4964680;28;7233;-75
2023/09/03 07:07:09;;;;;;;;;;;;;;;21.91;66.00;101662.41;4956668;28;7440;-74
2023/09/03 07:09:35;;;;;;;;;;;;;;;22.00;66.34;101670.44;4961151;28;7306;-74
2023/09/03 07:12:01;;;;;;;;;;;;;;;22.09;65.79;101671.47;4965337;28;6787;-74
2023/09/03 07:14:31;;;;;;;;;;;;;;;22.19;65.93;101673.44;4964017;28;6979;-74
2023/09/03 07:16:56;;;;;;;;;;;;;;;22.29;65.93;101679.72;4965279;28;6815;-74
2023/09/03 07:19:22;;;;;;;;;;;;;;;22.38;65.62;101673.78;4964067;28;6931;-75
2023/09/03 07:21:48;;;;;;;;;;;;;;;22.49;65.67;101682.75;4980237;28;6808;-74
2023/09/03 07:24:14;;;;;;;;;;;;;;;22.59;65.51;101682.06;4966947;28;6979;-74
2023/09/03 07:26:41;;;;;;;;;;;;;;;22.69;65.18;101684.84;4965478;28;7042;-74
2023/09/03 07:29:06;;;;;;;;;;;;;;;22.74;64.64;101686.72;4973088;28;6926;-74
2023/09/03 07:31:32;;;;;;;;;;;;;;;22.75;64.34;101696.31;4998151;28;7020;-74
2023/09/03 07:33:59;;;;;;;;;;;;;;;22.75;64.91;101701.53;4974850;28;6792;-74
2023/09/03 07:36:25;;;;;;;;;;;;;;;22.82;64.93;101702.53;4961873;28;7025;-74
2023/09/03 07:38:50;;;;;;;;;;;;;;;22.95;65.25;101708.84;4966812;28;7203;-75
2023/09/03 07:41:16;;;;;;;;;;;;;;;23.03;64.47;101712.47;4966192;28;7239;-75
2023/09/03 07:43:42;;;;;;;;;;;;;;;23.10;64.47;101705.63;4994848;28;6884;-75
2023/09/03 07:46:07;;;;;;;;;;;;;;;23.16;64.41;101700.47;4964634;28;6952;-75
2023/09/03 07:48:34;;;;;;;;;;;;;;;23.21;63.66;101715.38;4978771;28;6955;-75
2023/09/03 07:51:00;;;;;;;;;;;;;;;23.24;63.82;101720.63;4977844;28;7007;-75
2023/09/03 07:53:25;;;;;;;;;;;;;;;23.21;63.23;101717.97;4966751;28;7333;-74
2023/09/03 07:55:51;;;;;;;;;;;;;;;23.12;63.04;101719.59;4981252;28;7133;-75
2023/09/03 07:58:16;;;;;;;;;;;;;;;23.03;63.00;101719.44;4962465;28;7150;-74
2023/09/03 08:00:42;;;;;;;;;;;;;;;23.01;62.72;101718.53;4967963;28;7006;-75
2023/09/03 08:03:07;;;;;;;;;;;;;;;22.97;63.06;101719.31;4976453;28;7090;-75
2023/09/03 08:05:33;;;;;;;;;;;;;;;22.93;62.83;101722.72;4962436;28;6976;-73
2023/09/03 08:07:58;;;;;;;;;;;;;;;22.94;63.11;101725.38;4973927;28;6780;-73
2023/09/03 08:10:24;;;;;;;;;;;;;;;22.99;63.17;101730.69;4979709;28;7007;-74
2023/09/03 08:12:50;;;;;;;;;;;;;;;23.07;62.92;101729.06;4965559;28;6977;-74
2023/09/03 08:15:16;;;;;;;;;;;;;;;23.16;63.34;101731.84;4994392;28;7001;-73
2023/09/03 08:17:41;;;;;;;;;;;;;;;23.28;63.62;101730.34;4979176;28;6972;-74
2023/09/03 08:20:07;;;;;;;;;;;;;;;23.38;63.06;101724.41;4966605;28;6977;-73
2023/09/03 08:22:32;;;;;;;;;;;;;;;23.50;63.23;101725.44;4966075;28;6780;-73
2023/09/03 08:24:58;;;;;;;;;;;;;;;23.60;63.26;101719.50;4944729;28;7380;-74
2023/09/03 08:27:23;;;;;;;;;;;;;;;23.76;63.14;101720.59;4994845;28;6825;-74
2023/09/03 08:29:49;;;;;;;;;;;;;;;23.86;63.20;101719.84;4978641;28;6979;-74
2023/09/03 08:32:15;;;;;;;;;;;;;;;23.96;62.57;101713.03;4971072;28;6775;-75
2023/09/03 08:34:40;;;;;;;;;;;;;;;24.07;62.31;101710.56;4965204;28;6867;-74
2023/09/03 08:37:06;;;;;;;;;;;;;;;24.22;62.37;101720.34;4977220;28;7159;-76
2023/09/03 08:39:31;;;;;;;;;;;;;;;24.32;62.45;101721.34;4956339;28;7264;-74
2023/09/03 08:41:57;;;;;;;;;;;;;;;24.41;61.93;101720.56;4965249;28;7155;-74
2023/09/03 08:44:31;;;;;;;;;;;;;;;24.54;61.31;101727.72;4975910;28;6795;-73
2023/09/03 08:46:59;;;;;;;;;;;;;;;24.65;61.56;101722.56;4975858;28;7158;-73
2023/09/03 08:49:27;;;;;;;;;;;;;;;24.76;61.14;101727.94;4993535;28;7254;-74
2023/09/03 08:51:53;;;;;;;;;;;;;;;24.91;61.21;101731.56;4961820;28;7073;-74
2023/09/03 08:54:18;;;;;;;;;;;;;;;25.02;60.63;101729.97;4957561;28;8632;-74
2023/09/03 08:56:44;;;;;;;;;;;;;;;25.11;60.63;101726.53;4961426;28;7425;-74
2023/09/03 08:59:10;;;;;;;;;;;;;;;25.18;59.49;101730.97;4978984;28;7020;-73
2023/09/03 09:01:38;;;;;;;;;;;;;;;25.27;60.15;101732.78;4962682;28;6966;-74
2023/09/03 09:04:05;;;;;;;;;;;;;;;25.37;59.62;101723.25;4962383;28;7037;-73
2023/09/03 09:06:31;;;;;;;;;;;;;;;25.38;59.11;101728.47;4964116;28;7288;-75
2023/09/03 09:09:01;;;;;;;;;;;;;;;25.41;58.78;101722.38;4994862;28;6848;-74
2023/09/03 09:11:40;;;;;;;;;;;;;;;25.45;59.31;101718.03;4976234;28;6986;-73
2023/09/03 09:14:22;;;;;;;;;;;;;;;25.54;58.97;101719.84;4993959;28;6980;-74
2023/09/03 09:16:47;;;;;;;;;;;;;;;25.56;58.30;101711.13;4959824;28;7065;-73
2023/09/03 09:19:17;;;;;;;;;;;;;;;25.58;58.36;101719.91;4962914;28;6875;-74
2023/09/03 09:21:42;;;;;;;;;;;;;;;25.63;58.35;101712.94;4976913;28;7011;-74
2023/09/03 09:24:08;;;;;;;;;;;;;;;25.71;58.77;101704.25;4962508;28;8502;-73
2023/09/03 09:26:33;;;;;;;;;;;;;;;25.83;58.21;101704.28;4979843;28;6795;-74
2023/09/03 09:29:01;;;;;;;;;;;;;;;26.01;58.49;101710.50;4971873;28;7251;-74
2023/09/03 09:31:30;;;;;;;;;;;;;;;26.14;57.88;101716.69;4960831;28;6870;-73
2023/09/03 09:33:58;;;;;;;;;;;;;;;26.20;57.03;101707.13;4960415;28;7187;-73
2023/09/03 09:36:23;;;;;;;;;;;;;;;26.30;57.38;101704.50;4967460;28;7035;-75
2023/09/03 09:38:49;;;;;;;;;;;;;;;26.40;56.96;101700.16;4963373;28;6795;-74
2023/09/03 09:41:37;;;;;;;;;;;;;;;26.59;57.24;101703.72;4961357;28;7142;-73
2023/09/03 09:44:10;;;;;;;;;;;;;;;26.75;56.88;101700.22;4977953;28;7015;-74
2023/09/03 09:46:36;;;;;;;;;;;;;;;26.95;56.24;101699.41;4977492;28;7015;-73
2023/09/03 09:49:02;;;;;;;;;;;;;;;27.15;55.94;101701.16;4966079;28;6800;-74
2023/09/03 09:51:29;;;;;;;;;;;;;;;27.47;55.60;101707.22;4978963;28;6987;-73
2023/09/03 09:54:02;;;;;;;;;;;;;;;27.93;53.94;101706.28;4967800;28;6974;-75
2023/09/03 09:56:30;;;;;;;;;;;;;;;28.29;51.99;101709.63;4948722;28;6814;-75
2023/09/03 09:58:59;;;;;;;;;;;;;;;28.54;51.12;101705.09;4964417;28;6994;-73
2023/09/03 10:01:27;;;;;;;;;;;;;;;28.83;50.39;101700.53;4976094;28;6985;-74
2023/09/03 10:03:53;;;;;;;;;;;;;;;29.07;49.83;101694.16;4977458;28;8843;-73
2023/09/03 10:06:22;;;;;;;;;;;;;;;29.45;48.37;101699.13;4961060;28;7310;-75
2023/09/03 10:08:49;;;;;;;;;;;;;;;29.92;47.45;101705.63;4965836;28;7001;-73
2023/09/03 10:11:15;;;;;;;;;;;;;;;30.33;46.10;101716.56;4982020;28;7260;-73
2023/09/03 10:13:42;;;;;;;;;;;;;;;30.61;45.50;101720.56;4995584;28;6792;-73
2023/09/03 10:16:11;;;;;;;;;;;;;;;30.97;44.66;101717.38;4967753;28;6935;-73
2023/09/03 10:18:59;;;;;;;;;;;;;;;31.37;43.74;101716.69;4977862;28;6857;-74
2023/09/03 10:21:26;;;;;;;;;;;;;;;31.77;43.90;101708.84;4993497;28;6803;-73
2023/09/03 10:23:52;;;;;;;;;;;;;;;32.27;43.25;101709.59;4963530;28;7264;-74
2023/09/03 10:26:26;;;;;;;;;;;;;;;32.75;42.16;101707.63;4992008;28;6956;-73
2023/09/03 10:28:56;;;;;;;;;;;;;;;33.11;40.71;101704.94;4977665;28;6999;-74
2023/09/03 10:31:24;;;;;;;;;;;;;;;33.36;39.94;101708.72;4978771;28;6975;-75
2023/09/03 10:33:49;;;;;;;;;;;;;;;33.56;39.23;101707.31;4964361;28;6987;-76
2023/09/03 10:36:19;;;;;;;;;;;;;;;33.70;38.49;101709.59;4960060;28;7067;-74
2023/09/03 10:38:45;;;;;;;;;;;;;;;33.90;37.41;101704.59;4980351;28;7908;-73
2023/09/03 10:41:22;;;;;;;;;;;;;;;34.03;36.68;101702.44;4964892;28;6784;-74
2023/09/03 10:43:52;;;;;;;;;;;;;;;34.07;35.82;101705.88;4966240;28;7002;-73
2023/09/03 10:46:18;;;;;;;;;;;;;;;33.98;35.21;101704.34;4964869;28;7032;-74
2023/09/03 10:48:51;;;;;;;;;;;;;;;34.02;35.41;101699.84;4997678;28;7271;-73
2023/09/03 10:51:32;;;;;;;;;;;;;;;34.13;34.39;101695.06;4978776;28;6823;-74
2023/09/03 10:54:14;;;;;;;;;;;;;;;34.19;34.26;101691.31;4996707;28;6898;-74
2023/09/03 10:57:05;;;;;;;;;;;;;;;34.33;34.34;101693.56;4996012;28;6819;-74
2023/09/03 10:59:58;;;;;;;;;;;;;;;34.56;33.68;101698.16;4978317;28;6996;-74
2023/09/03 11:02:28;;;;;;;;;;;;;;;34.80;33.59;101692.91;4981409;28;8303;-74
2023/09/03 11:05:20;;;;;;;;;;;;;;;35.04;33.50;101691.22;4992566;28;7219;-73
2023/09/03 11:07:47;;;;;;;;;;;;;;;35.25;32.35;101691.41;4996471;28;6854;-73
2023/09/03 11:10:24;;;;;;;;;;;;;;;35.31;32.19;101696.50;4979900;28;7038;-73
2023/09/03 11:12:51;;;;;;;;;;;;;;;35.35;31.39;101699.94;4965862;28;7865;-75
2023/09/03 11:15:18;;;;;;;;;;;;;;;35.24;30.89;101692.31;4965840;28;7754;-73
2023/09/03 11:17:51;;;;;;;;;;;;;;;35.23;31.18;101690.56;4965094;28;8190;-73
2023/09/03 11:20:32;;;;;;;;;;;;;;;35.30;30.63;101691.25;4964138;28;6880;-74
2023/09/03 11:22:58;;;;;;;;;;;;;;;35.41;31.77;101682.84;4966311;28;6807;-74
2023/09/03 11:25:37;;;;;;;;;;;;;;;35.54;30.80;101683.25;4964535;28;6784;-74
2023/09/03 11:28:04;;;;;;;;;;;;;;;35.67;31.41;101684.56;4995367;28;7164;-74
2023/09/03 11:30:30;;;;;;;;;;;;;;;35.80;30.79;101679.63;4963398;28;6788;-74
2023/09/03 11:32:56;;;;;;;;;;;;;;;35.89;30.41;101693.53;4978475;28;7451;-73
2023/09/03 11:35:22;;;;;;;;;;;;;;;35.88;29.75;101694.47;4963350;28;7098;-73
2023/09/03 11:37:48;;;;;;;;;;;;;;;35.88;29.11;101689.13;4981819;28;6919;-73
2023/09/03 11:40:14;;;;;;;;;;;;;;;35.95;29.49;101687.97;4977871;28;6804;-74
2023/09/03 11:42:50;;;;;;;;;;;;;;;36.11;28.98;101694.44;4961257;28;6795;-74
2023/09/03 11:45:16;;;;;;;;;;;;;;;36.21;28.86;101694.09;4977916;28;7021;-74
2023/09/03 11:47:49;;;;;;;;;;;;;;;36.11;28.97;101691.78;4963410;28;6976;-74
2023/09/03 11:50:15;;;;;;;;;;;;;;;35.87;28.76;101690.91;4979447;28;6800;-74
2023/09/03 11:52:54;;;;;;;;;;;;;;;35.80;28.24;101694.78;4962145;28;7031;-74
2023/09/03 11:55:22;;;;;;;;;;;;;;;35.73;27.90;101689.66;4971628;28;8499;-74
2023/09/03 11:57:49;;;;;;;;;;;;;;;35.59;28.14;101686.66;4962305;28;6792;-74
2023/09/03 12:00:15;;;;;;;;;;;;;;;35.56;28.94;101690.31;4975342;28;6982;-73
2023/09/03 12:02:42;;;;;;;;;;;;;;;35.61;28.95;101686.59;4957314;28;6828;-73
2023/09/03 12:05:08;;;;;;;;;;;;;;;35.54;28.76;101689.47;4989766;28;8612;-73
2023/09/03 12:07:34;;;;;;;;;;;;;;;35.25;28.61;101694.09;4963749;28;7086;-74
2023/09/03 12:10:00;;;;;;;;;;;;;;;34.90;29.20;101691.69;4990398;28;6783;-74
2023/09/03 12:12:25;;;;;;;;;;;;;;;34.71;29.46;101694.13;4995205;28;6779;-74
2023/09/03 12:14:51;;;;;;;;;;;;;;;34.66;29.55;101690.72;4965368;28;7354;-73
2023/09/03 12:17:27;;;;;;;;;;;;;;;34.61;30.38;101682.88;4977886;28;6791;-74
2023/09/03 12:19:53;;;;;;;;;;;;;;;34.61;30.68;101687.38;4994816;28;7086;-74
2023/09/03 12:22:19;;;;;;;;;;;;;;;34.74;30.80;101687.81;4996473;28;7444;-75
2023/09/03 12:24:47;;;;;;;;;;;;;;;34.89;31.13;101691.75;4964755;28;6800;-76
2023/09/03 12:27:12;;;;;;;;;;;;;;;35.05;31.02;101694.78;4976878;28;7232;-74
2023/09/03 12:29:39;;;;;;;;;;;;;;;35.14;30.72;101691.78;4966843;28;6980;-74
2023/09/03 12:32:07;;;;;;;;;;;;;;;35.21;31.10;101686.25;4959925;28;7014;-74
2023/09/03 12:34:34;;;;;;;;;;;;;;;35.31;30.63;101691.19;4993723;28;6800;-74
2023/09/03 12:37:00;;;;;;;;;;;;;;;35.39;29.76;101700.69;4961930;28;7192;-74
2023/09/03 12:39:33;;;;;;;;;;;;;;;35.16;29.85;101697.06;4980909;28;7590;-74
2023/09/03 12:42:00;;;;;;;;;;;;;;;34.85;29.45;101700.75;4964229;28;7479;-74
2023/09/03 12:44:27;;;;;;;;;;;;;;;34.58;29.67;101698.97;4963262;28;6811;-74
2023/09/03 12:46:53;;;;;;;;;;;;;;;34.36;29.99;101690.78;4963077;28;7004;-75
2023/09/03 12:49:19;;;;;;;;;;;;;;;34.18;30.38;101695.75;4957618;28;7208;-76